createdAt,value
2022-09-18T00:01:02.002Z,100392.88
2022-09-18T00:03:28.800Z,100395.94
2022-09-18T00:05:55.160Z,100395.03
2022-09-18T00:08:21.731Z,100398.47
2022-09-18T00:10:48.145Z,100395.16
2022-09-18T00:13:15.193Z,100395.88
2022-09-18T00:15:42.087Z,100395.09
2022-09-18T00:18:08.831Z,100397.91
2022-09-18T00:20:36.511Z,100395.47
2022-09-18T00:23:03.099Z,100391.13
2022-09-18T00:25:29.987Z,100395.59
2022-09-18T00:27:56.384Z,100397.50
2022-09-18T00:30:22.807Z,100394.56
2022-09-18T00:32:49.184Z,100393.22
2022-09-18T00:35:15.678Z,100388.66
2022-09-18T00:37:42.063Z,100389.06
2022-09-18T00:40:09.015Z,100390.75
2022-09-18T00:42:35.491Z,100394.63
2022-09-18T00:45:03.057Z,100396.66
2022-09-18T00:47:42.123Z,100390.59
2022-09-18T00:50:16.799Z,100391.69
2022-09-18T00:52:57.911Z,100389.09
2022-09-18T00:55:31.035Z,100392.53
2022-09-18T00:57:59.680Z,100386.03
2022-09-18T01:00:27.119Z,100379.03
2022-09-18T01:02:53.932Z,100368.56
2022-09-18T01:05:35.316Z,100373.81
2022-09-18T01:08:18.914Z,100375.78
2022-09-18T01:11:08.753Z,100385.41
2022-09-18T01:13:43.435Z,100381.94
2022-09-18T01:16:22.793Z,100390.41
2022-09-18T01:19:13.966Z,100384.34
2022-09-18T01:22:23.104Z,100387.88
2022-09-18T01:25:02.691Z,100396.81
2022-09-18T01:27:41.256Z,100382.91
2022-09-18T01:30:10.176Z,100382.91
2022-09-18T01:32:36.493Z,100386.19
2022-09-18T01:35:39.471Z,100389.41
2022-09-18T01:38:30.689Z,100395.97
2022-09-18T01:41:05.402Z,100402.78
2022-09-18T01:43:32.799Z,100403.75
2022-09-18T01:46:04.421Z,100403.81
2022-09-18T01:48:35.438Z,100400.09
2022-09-18T01:51:08.837Z,100401.94
2022-09-18T01:53:41.868Z,100400.25
2022-09-18T01:56:13.874Z,100392.16
2022-09-18T01:58:40.424Z,100391.25
2022-09-18T02:01:13.276Z,100387.72
2022-09-18T02:03:45.603Z,100386.88
2022-09-18T02:06:15.703Z,100383.44
2022-09-18T02:08:50.495Z,100388.44
2022-09-18T02:11:18.933Z,100392.22
2022-09-18T02:14:08.410Z,100386.13
2022-09-18T02:16:41.884Z,100384.50
2022-09-18T02:19:15.965Z,100383.38
2022-09-18T02:21:43.757Z,100386.28
2022-09-18T02:24:13.541Z,100387.94
2022-09-18T02:26:41.402Z,100375.00
2022-09-18T02:29:11.532Z,100377.41
2022-09-18T02:31:39.656Z,100383.38
2022-09-18T02:34:08.304Z,100373.03
2022-09-18T02:36:50.047Z,100374.28
2022-09-18T02:39:21.414Z,100377.81
2022-09-18T02:42:24.834Z,100378.69
2022-09-18T02:45:38.297Z,100376.28
2022-09-18T02:48:16.775Z,100374.88
2022-09-18T02:50:52.091Z,100377.41
2022-09-18T02:53:30.064Z,100372.28
2022-09-18T02:56:03.104Z,100379.03
2022-09-18T02:58:43.331Z,100371.34
2022-09-18T03:01:11.381Z,100377.41
2022-09-18T03:03:38.960Z,100361.88
2022-09-18T03:06:06.977Z,100353.22
2022-09-18T03:08:33.687Z,100360.09
2022-09-18T03:11:00.176Z,100361.47
2022-09-18T03:13:26.710Z,100350.34
2022-09-18T03:15:55.521Z,100358.09
2022-09-18T03:18:22.222Z,100362.56
2022-09-18T03:20:48.647Z,100352.09
2022-09-18T03:23:15.262Z,100362.72
2022-09-18T03:25:41.640Z,100356.81
2022-09-18T03:28:08.105Z,100356.91
2022-09-18T03:30:34.882Z,100360.97
2022-09-18T03:33:01.504Z,100361.88
2022-09-18T03:35:27.876Z,100359.97
2022-09-18T03:37:55.870Z,100359.78
2022-09-18T03:40:22.325Z,100358.72
2022-09-18T03:42:48.780Z,100356.47
2022-09-18T03:45:15.203Z,100358.34
2022-09-18T03:47:41.653Z,100359.25
2022-09-18T03:50:08.343Z,100364.97
2022-09-18T03:52:34.758Z,100366.28
2022-09-18T03:55:01.159Z,100365.03
2022-09-18T03:57:27.736Z,100373.97
2022-09-18T03:59:54.429Z,100370.81
2022-09-18T04:02:20.838Z,100370.84
2022-09-18T04:04:47.178Z,100369.28
2022-09-18T04:07:13.739Z,100371.81
2022-09-18T04:09:40.613Z,100375.69
2022-09-18T04:12:07.205Z,100368.50
2022-09-18T04:14:33.883Z,100360.72
2022-09-18T04:17:00.468Z,100360.66
2022-09-18T04:19:26.854Z,100352.91
2022-09-18T04:21:53.206Z,100356.66
2022-09-18T04:24:19.578Z,100362.53
2022-09-18T04:26:49.999Z,100356.56
2022-09-18T04:29:16.777Z,100365.06
2022-09-18T04:31:43.237Z,100361.75
2022-09-18T04:34:09.612Z,100361.50
2022-09-18T04:36:36.144Z,100360.84
2022-09-18T04:39:02.792Z,100361.50
2022-09-18T04:41:29.363Z,100366.63
2022-09-18T04:43:55.744Z,100360.66
2022-09-18T04:46:22.335Z,100362.47
2022-09-18T04:48:49.611Z,100357.97
2022-09-18T04:51:16.467Z,100367.59
2022-09-18T04:53:42.830Z,100363.88
2022-09-18T04:56:09.174Z,100370.91
2022-09-18T04:58:35.540Z,100374.28
2022-09-18T05:01:02.005Z,100377.34
2022-09-18T05:03:28.868Z,100384.34
2022-09-18T05:05:56.126Z,100381.44
2022-09-18T05:08:23.049Z,100372.81
2022-09-18T05:10:49.608Z,100369.06
2022-09-18T05:13:16.031Z,100375.09
2022-09-18T05:15:42.471Z,100368.06
2022-09-18T05:18:11.998Z,100366.94
2022-09-18T05:20:38.490Z,100369.97
2022-09-18T05:23:06.837Z,100365.63
2022-09-18T05:25:33.453Z,100370.81
2022-09-18T05:28:01.484Z,100368.22
2022-09-18T05:30:28.555Z,100370.97
2022-09-18T05:33:00.261Z,100365.72
2022-09-18T05:35:29.020Z,100374.81
2022-09-18T05:37:56.139Z,100378.31
2022-09-18T05:40:24.714Z,100378.31
2022-09-18T05:42:53.073Z,100381.22
2022-09-18T05:45:20.595Z,100382.00
2022-09-18T05:47:55.412Z,100389.72
2022-09-18T05:50:22.113Z,100389.63
2022-09-18T05:52:55.887Z,100384.22
2022-09-18T05:55:22.313Z,100386.34
2022-09-18T05:57:52.323Z,100395.22
2022-09-18T06:00:18.734Z,100404.91
2022-09-18T06:02:52.579Z,100404.78
2022-09-18T06:05:18.989Z,100406.47
2022-09-18T06:07:45.390Z,100416.59
2022-09-18T06:10:12.775Z,100408.91
2022-09-18T06:12:39.137Z,100399.28
2022-09-18T06:15:06.803Z,100408.53
2022-09-18T06:17:33.204Z,100405.88
2022-09-18T06:20:00.005Z,100415.56
2022-09-18T06:22:26.784Z,100415.22
2022-09-18T06:24:53.157Z,100422.19
2022-09-18T06:27:19.526Z,100429.28
2022-09-18T06:29:45.908Z,100434.28
2022-09-18T06:32:12.279Z,100432.53
2022-09-18T06:34:38.935Z,100435.72
2022-09-18T06:37:05.626Z,100425.13
2022-09-18T06:39:32.016Z,100427.34
2022-09-18T06:42:00.161Z,100426.50
2022-09-18T06:44:26.588Z,100432.22
2022-09-18T06:46:52.952Z,100423.56
2022-09-18T06:49:19.386Z,100429.69
2022-09-18T06:51:48.481Z,100431.09
2022-09-18T06:54:16.230Z,100426.50
2022-09-18T06:56:43.225Z,100432.63
2022-09-18T06:59:09.613Z,100431.44
2022-09-18T07:01:35.965Z,100424.34
2022-09-18T07:04:02.692Z,100432.97
2022-09-18T07:06:29.096Z,100432.09
2022-09-18T07:08:56.178Z,100427.91
2022-09-18T07:11:22.594Z,100433.19
2022-09-18T07:13:49.158Z,100429.59
2022-09-18T07:16:16.011Z,100428.75
2022-09-18T07:18:43.396Z,100434.88
2022-09-18T07:21:09.778Z,100427.38
2022-09-18T07:23:36.256Z,100428.88
2022-09-18T07:26:04.256Z,100433.16
2022-09-18T07:28:30.831Z,100426.25
2022-09-18T07:31:03.219Z,100426.44
2022-09-18T07:33:29.668Z,100430.41
2022-09-18T07:36:00.160Z,100437.22
2022-09-18T07:38:26.566Z,100433.91
2022-09-18T07:40:52.949Z,100441.13
2022-09-18T07:43:19.338Z,100439.34
2022-09-18T07:45:45.712Z,100431.75
2022-09-18T07:48:12.636Z,100439.75
2022-09-18T07:50:39.692Z,100445.41
2022-09-18T07:53:07.407Z,100437.19
2022-09-18T07:55:35.743Z,100445.47
2022-09-18T07:58:04.843Z,100443.94
2022-09-18T08:00:37.053Z,100459.13
2022-09-18T08:03:13.956Z,100467.88
2022-09-18T08:05:41.944Z,100467.09
2022-09-18T08:08:12.973Z,100478.00
2022-09-18T08:10:41.219Z,100470.09
2022-09-18T08:13:08.023Z,100473.31
2022-09-18T08:15:38.777Z,100461.47
2022-09-18T08:18:06.826Z,100464.09
2022-09-18T08:20:33.921Z,100458.50
2022-09-18T08:23:03.408Z,100470.94
2022-09-18T08:25:30.150Z,100464.91
2022-09-18T08:28:04.121Z,100468.19
2022-09-18T08:30:31.011Z,100468.09
2022-09-18T08:32:59.287Z,100470.72
2022-09-18T08:35:25.764Z,100481.72
2022-09-18T08:37:52.428Z,100467.34
2022-09-18T08:40:22.574Z,100469.25
2022-09-18T08:43:01.355Z,100451.19
2022-09-18T08:45:58.787Z,100445.25
2022-09-18T08:48:33.486Z,100446.16
2022-09-18T08:51:04.777Z,100445.94
2022-09-18T08:53:36.078Z,100442.97
2022-09-18T08:56:11.967Z,100436.50
2022-09-18T08:58:47.872Z,100434.59
2022-09-18T09:01:19.013Z,100434.97
2022-09-18T09:04:01.970Z,100440.31
2022-09-18T09:06:49.859Z,100435.91
2022-09-18T09:09:34.569Z,100443.25
2022-09-18T09:12:19.450Z,100430.69
2022-09-18T09:15:24.446Z,100436.97
2022-09-18T09:18:12.030Z,100443.69
2022-09-18T09:20:50.740Z,100431.31
2022-09-18T09:23:49.221Z,100434.47
2022-09-18T09:26:23.251Z,100440.75
2022-09-18T09:29:22.024Z,100435.25
2022-09-18T09:31:59.381Z,100435.50
2022-09-18T09:34:37.004Z,100437.94
2022-09-18T09:37:10.696Z,100437.44
2022-09-18T09:39:40.674Z,100438.81
2022-09-18T09:42:16.583Z,100425.28
2022-09-18T09:45:02.922Z,100424.53
2022-09-18T09:47:41.870Z,100431.88
2022-09-18T09:50:26.871Z,100439.47
2022-09-18T09:52:57.821Z,100430.41
2022-09-18T09:55:31.883Z,100428.31
2022-09-18T09:58:22.919Z,100433.00
2022-09-18T10:00:56.546Z,100440.22
2022-09-18T10:03:35.562Z,100432.22
2022-09-18T10:06:23.352Z,100427.66
2022-09-18T10:08:59.761Z,100423.50
2022-09-18T10:11:26.354Z,100426.53
2022-09-18T10:14:02.493Z,100420.72
2022-09-18T10:16:37.119Z,100426.81
2022-09-18T10:19:03.747Z,100423.94
2022-09-18T10:21:38.399Z,100414.91
2022-09-18T10:24:29.931Z,100400.56
2022-09-18T10:27:07.910Z,100403.94
2022-09-18T10:29:36.094Z,100400.56
2022-09-18T10:32:03.446Z,100394.00
2022-09-18T10:34:46.570Z,100399.06
2022-09-18T10:37:40.291Z,100382.75
2022-09-18T10:40:40.146Z,100384.69
2022-09-18T10:43:14.799Z,100386.19
2022-09-18T10:45:41.780Z,100404.50
2022-09-18T10:48:15.856Z,100398.72
2022-09-18T10:51:01.550Z,100391.13
2022-09-18T10:53:31.499Z,100386.84
2022-09-18T10:56:20.101Z,100388.72
2022-09-18T10:58:46.879Z,100399.56
2022-09-18T11:01:14.114Z,100384.22
2022-09-18T11:03:47.535Z,100387.31
2022-09-18T11:06:20.952Z,100390.09
2022-09-18T11:08:50.368Z,100387.75
2022-09-18T11:11:28.024Z,100386.81
2022-09-18T11:13:59.460Z,100381.03
2022-09-18T11:16:29.923Z,100383.25
2022-09-18T11:19:07.477Z,100370.00
2022-09-18T11:21:44.210Z,100366.09
2022-09-18T11:24:18.944Z,100362.81
2022-09-18T11:26:57.099Z,100368.88
2022-09-18T11:29:27.172Z,100372.81
2022-09-18T11:31:58.947Z,100386.00
2022-09-18T11:34:31.268Z,100374.22
2022-09-18T11:37:02.715Z,100378.34
2022-09-18T11:39:35.973Z,100375.22
2022-09-18T11:42:10.040Z,100375.53
2022-09-18T11:44:36.458Z,100364.94
2022-09-18T11:47:32.759Z,100366.47
2022-09-18T11:50:11.826Z,100367.47
2022-09-18T11:52:49.041Z,100367.00
2022-09-18T11:55:38.510Z,100371.00
2022-09-18T11:58:24.625Z,100364.06
2022-09-18T12:01:10.359Z,100361.19
2022-09-18T12:03:49.458Z,100355.03
2022-09-18T12:06:32.660Z,100353.44
2022-09-18T12:09:10.853Z,100364.75
2022-09-18T12:11:51.441Z,100353.19
2022-09-18T12:14:27.714Z,100354.13
2022-09-18T12:17:02.147Z,100345.69
2022-09-18T12:19:36.139Z,100342.69
2022-09-18T12:22:36.646Z,100329.22
2022-09-18T12:25:16.928Z,100325.41
2022-09-18T12:27:55.398Z,100322.84
2022-09-18T12:30:28.142Z,100311.53
2022-09-18T12:33:22.437Z,100314.72
2022-09-18T12:36:40.082Z,100317.13
2022-09-18T12:39:24.889Z,100323.59
2022-09-18T12:42:14.636Z,100314.88
2022-09-18T12:45:13.325Z,100324.53
2022-09-18T12:48:02.778Z,100325.66
2022-09-18T12:50:42.577Z,100331.00
2022-09-18T12:53:20.726Z,100326.16
2022-09-18T12:55:50.004Z,100324.94
2022-09-18T12:58:50.555Z,100324.00
2022-09-18T13:01:36.898Z,100330.66
2022-09-18T13:04:30.461Z,100325.56
2022-09-18T13:07:11.984Z,100326.25
2022-09-18T13:09:44.077Z,100324.19
2022-09-18T13:12:20.137Z,100315.59
2022-09-18T13:14:52.938Z,100319.41
2022-09-18T13:17:27.517Z,100313.06
2022-09-18T13:20:13.865Z,100307.81
2022-09-18T13:22:44.725Z,100311.63
2022-09-18T13:25:29.169Z,100307.13
2022-09-18T13:27:56.704Z,100297.34
2022-09-18T13:30:30.164Z,100312.75
2022-09-18T13:32:58.814Z,100293.22
2022-09-18T13:35:29.704Z,100297.25
2022-09-18T13:38:19.718Z,100290.97
2022-09-18T13:40:49.079Z,100286.03
2022-09-18T13:43:27.359Z,100283.78
2022-09-18T13:45:59.736Z,100280.13
2022-09-18T13:48:39.385Z,100278.72
2022-09-18T13:51:10.219Z,100270.47
2022-09-18T13:53:36.529Z,100273.38
2022-09-18T13:56:04.013Z,100274.63
2022-09-18T13:58:36.857Z,100265.72
2022-09-18T14:01:08.995Z,100258.16
2022-09-18T14:03:38.574Z,100259.34
2022-09-18T14:06:36.334Z,100265.09
2022-09-18T14:09:25.087Z,100269.94
2022-09-18T14:11:51.667Z,100271.25
2022-09-18T14:14:24.729Z,100264.03
2022-09-18T14:16:51.434Z,100257.97
2022-09-18T14:19:32.136Z,100249.16
2022-09-18T14:22:00.930Z,100251.88
2022-09-18T14:24:36.450Z,100251.59
2022-09-18T14:27:31.289Z,100242.81
2022-09-18T14:29:59.398Z,100247.09
2022-09-18T14:32:26.965Z,100250.88
2022-09-18T14:35:26.215Z,100237.97
2022-09-18T14:37:52.551Z,100218.50
2022-09-18T14:40:23.678Z,100223.53
2022-09-18T14:42:50.979Z,100230.47
2022-09-18T14:45:25.846Z,100230.75
2022-09-18T14:47:53.036Z,100232.94
2022-09-18T14:50:32.251Z,100230.31
2022-09-18T14:53:18.424Z,100214.50
2022-09-18T14:55:51.029Z,100218.06
2022-09-18T14:58:20.606Z,100206.75
2022-09-18T15:00:53.998Z,100209.53
2022-09-18T15:03:27.578Z,100200.00
2022-09-18T15:05:57.269Z,100196.00
2022-09-18T15:08:26.840Z,100193.28
2022-09-18T15:10:56.207Z,100192.03
2022-09-18T15:13:23.053Z,100195.91
2022-09-18T15:15:58.729Z,100197.03
2022-09-18T15:18:30.302Z,100183.19
2022-09-18T15:21:01.669Z,100187.31
2022-09-18T15:23:38.173Z,100193.38
2022-09-18T15:26:14.401Z,100185.63
2022-09-18T15:28:44.299Z,100180.19
2022-09-18T15:31:13.980Z,100171.66
2022-09-18T15:33:50.244Z,100174.50
2022-09-18T15:36:26.933Z,100171.47
2022-09-18T15:38:54.740Z,100165.69
2022-09-18T15:41:29.743Z,100167.47
2022-09-18T15:43:56.483Z,100168.25
2022-09-18T15:46:30.357Z,100165.22
2022-09-18T15:49:03.208Z,100161.41
2022-09-18T15:51:34.355Z,100162.31
2022-09-18T15:54:27.006Z,100148.09
2022-09-18T15:56:56.622Z,100157.84
2022-09-18T15:59:33.142Z,100151.56
2022-09-18T16:02:04.856Z,100157.94
2022-09-18T16:04:35.904Z,100159.22
2022-09-18T16:07:27.610Z,100144.03
2022-09-18T16:09:55.058Z,100145.44
2022-09-18T16:12:30.266Z,100143.78
2022-09-18T16:15:15.465Z,100137.50
2022-09-18T16:17:44.759Z,100129.00
2022-09-18T16:20:25.380Z,100119.75
2022-09-18T16:22:54.715Z,100121.22
2022-09-18T16:25:25.926Z,100118.91
2022-09-18T16:27:55.905Z,100124.25
2022-09-18T16:30:23.867Z,100114.91
2022-09-18T16:32:54.275Z,100114.91
2022-09-18T16:35:20.610Z,100111.56
2022-09-18T16:37:48.597Z,100111.00
2022-09-18T16:40:19.095Z,100105.75
2022-09-18T16:42:45.706Z,100112.13
2022-09-18T16:45:12.138Z,100105.13
2022-09-18T16:47:46.292Z,100108.22
2022-09-18T16:50:13.755Z,100106.63
2022-09-18T16:52:42.487Z,100116.19
2022-09-18T16:55:08.912Z,100111.03
2022-09-18T16:57:35.653Z,100110.59
2022-09-18T17:00:07.417Z,100114.88
2022-09-18T17:02:35.153Z,100111.31
2022-09-18T17:05:02.333Z,100109.19
2022-09-18T17:07:30.652Z,100105.97
2022-09-18T17:09:57.946Z,100117.84
2022-09-18T17:12:24.688Z,100103.00
2022-09-18T17:14:53.336Z,100102.91
2022-09-18T17:17:20.144Z,100103.19
2022-09-18T17:19:46.562Z,100111.22
2022-09-18T17:22:13.031Z,100110.28
2022-09-18T17:24:39.490Z,100103.34
2022-09-18T17:27:05.892Z,100105.13
2022-09-18T17:29:32.338Z,100112.34
2022-09-18T17:31:58.997Z,100099.34
2022-09-18T17:34:25.448Z,100102.63
2022-09-18T17:36:52.051Z,100113.91
2022-09-18T17:39:18.521Z,100112.34
2022-09-18T17:41:45.739Z,100101.78
2022-09-18T17:44:12.342Z,100114.56
2022-09-18T17:46:38.793Z,100119.25
2022-09-18T17:49:05.907Z,100115.81
2022-09-18T17:51:33.184Z,100113.19
2022-09-18T17:54:04.927Z,100119.34
2022-09-18T17:56:33.287Z,100123.66
2022-09-18T17:59:03.914Z,100127.09
2022-09-18T18:01:30.514Z,100121.13
2022-09-18T18:03:57.802Z,100112.84
2022-09-18T18:06:24.804Z,100124.59
2022-09-18T18:08:51.547Z,100124.69
2022-09-18T18:11:22.208Z,100136.84
2022-09-18T18:13:50.134Z,100141.56
2022-09-18T18:16:22.059Z,100141.03
2022-09-18T18:18:53.772Z,100149.63
2022-09-18T18:21:23.593Z,100132.25
2022-09-18T18:24:01.697Z,100125.31
2022-09-18T18:26:28.448Z,100132.44
2022-09-18T18:28:57.932Z,100138.59
2022-09-18T18:31:25.632Z,100141.97
2022-09-18T18:33:54.626Z,100144.69
2022-09-18T18:36:25.027Z,100144.88
2022-09-18T18:38:54.898Z,100151.25
2022-09-18T18:41:23.340Z,100153.84
2022-09-18T18:43:58.169Z,100154.75
2022-09-18T18:46:26.941Z,100152.34
2022-09-18T18:49:01.745Z,100151.41
2022-09-18T18:51:32.898Z,100162.06
2022-09-18T18:54:03.566Z,100159.44
2022-09-18T18:56:33.903Z,100161.22
2022-09-18T18:59:02.102Z,100168.31
2022-09-18T19:01:29.470Z,100163.94
2022-09-18T19:03:59.162Z,100161.41
2022-09-18T19:06:26.444Z,100160.84
2022-09-18T19:09:01.623Z,100151.25
2022-09-18T19:11:30.313Z,100159.53
2022-09-18T19:13:57.267Z,100159.72
2022-09-18T19:16:25.506Z,100158.06
2022-09-18T19:19:00.399Z,100149.63
2022-09-18T19:21:28.276Z,100159.53
2022-09-18T19:23:59.138Z,100157.84
2022-09-18T19:26:28.218Z,100173.72
2022-09-18T19:29:00.137Z,100176.91
2022-09-18T19:31:28.796Z,100183.06
2022-09-18T19:33:56.288Z,100187.00
2022-09-18T19:36:25.479Z,100188.69
2022-09-18T19:38:57.622Z,100193.50
2022-09-18T19:42:10.633Z,100183.75
2022-09-18T19:44:50.697Z,100200.38
2022-09-18T19:47:41.625Z,100192.59
2022-09-18T19:50:30.999Z,100196.31
2022-09-18T19:52:57.444Z,100193.72
2022-09-18T19:55:24.039Z,100192.13
2022-09-18T19:57:53.859Z,100194.16
2022-09-18T20:00:20.605Z,100190.13
2022-09-18T20:02:46.993Z,100194.69
2022-09-18T20:05:13.404Z,100190.19
2022-09-18T20:07:40.766Z,100191.03
2022-09-18T20:10:13.441Z,100189.53
2022-09-18T20:12:41.860Z,100184.81
2022-09-18T20:15:09.897Z,100183.84
2022-09-18T20:17:37.511Z,100181.97
2022-09-18T20:20:08.714Z,100188.38
2022-09-18T20:22:38.309Z,100170.84
2022-09-18T20:25:05.180Z,100167.16
2022-09-18T20:27:38.869Z,100168.72
2022-09-18T20:30:08.615Z,100178.44
2022-09-18T20:32:35.414Z,100172.69
2022-09-18T20:35:02.182Z,100173.44
2022-09-18T20:37:32.795Z,100163.00
2022-09-18T20:40:02.115Z,100166.53
2022-09-18T20:42:32.717Z,100170.09
2022-09-18T20:45:02.295Z,100169.25
2022-09-18T20:47:34.814Z,100171.84
2022-09-18T20:50:12.538Z,100175.06
2022-09-18T20:52:42.935Z,100184.59
2022-09-18T20:55:15.681Z,100181.97
2022-09-18T20:57:44.491Z,100183.00
2022-09-18T21:00:12.692Z,100181.28
2022-09-18T21:02:39.886Z,100179.47
2022-09-18T21:05:14.779Z,100184.59
2022-09-18T21:07:43.685Z,100185.25
2022-09-18T21:10:14.372Z,100188.97
2022-09-18T21:12:40.822Z,100194.09
2022-09-18T21:15:16.007Z,100192.16
2022-09-18T21:17:42.867Z,100198.31
2022-09-18T21:20:09.881Z,100196.44
2022-09-18T21:22:56.328Z,100208.59
2022-09-18T21:25:24.678Z,100206.47
2022-09-18T21:27:54.973Z,100203.09
2022-09-18T21:30:23.169Z,100210.09
2022-09-18T21:32:52.627Z,100201.41
2022-09-18T21:35:21.850Z,100206.72
2022-09-18T21:37:48.742Z,100205.63
2022-09-18T21:40:15.390Z,100204.75
2022-09-18T21:42:47.565Z,100211.25
2022-09-18T21:45:20.589Z,100212.47
2022-09-18T21:47:49.148Z,100214.78
2022-09-18T21:50:15.887Z,100222.72
2022-09-18T21:52:43.363Z,100222.47
2022-09-18T21:55:10.289Z,100222.88
2022-09-18T21:57:36.895Z,100231.47
2022-09-18T22:00:06.370Z,100237.09
2022-09-18T22:02:32.754Z,100240.56
2022-09-18T22:05:01.110Z,100240.44
2022-09-18T22:07:28.667Z,100244.97
2022-09-18T22:09:55.104Z,100245.81
2022-09-18T22:12:21.472Z,100254.09
2022-09-18T22:14:48.910Z,100262.13
2022-09-18T22:17:15.314Z,100258.91
2022-09-18T22:19:42.242Z,100266.81
2022-09-18T22:22:09.991Z,100270.84
2022-09-18T22:24:37.174Z,100302.59
2022-09-18T22:27:08.211Z,100310.59
2022-09-18T22:29:36.935Z,100337.31
2022-09-18T22:32:04.294Z,100330.81
2022-09-18T22:34:32.526Z,100346.00
2022-09-18T22:36:59.668Z,100349.81
2022-09-18T22:39:26.841Z,100349.19
2022-09-18T22:41:53.595Z,100345.50
2022-09-18T22:44:21.714Z,100344.56
2022-09-18T22:46:49.370Z,100350.09
2022-09-18T22:49:17.382Z,100351.78
2022-09-18T22:51:45.172Z,100359.72
2022-09-18T22:54:12.851Z,100357.97
2022-09-18T22:56:45.236Z,100352.88
2022-09-18T22:59:16.979Z,100347.56
2022-09-18T23:01:48.950Z,100345.88
2022-09-18T23:04:18.759Z,100348.66
2022-09-18T23:06:47.664Z,100346.84
2022-09-18T23:09:15.221Z,100344.06
2022-09-18T23:11:45.823Z,100347.41
2022-09-18T23:14:15.288Z,100343.00
2022-09-18T23:16:41.659Z,100341.88
2022-09-18T23:19:14.294Z,100345.19
2022-09-18T23:21:40.699Z,100339.88
2022-09-18T23:24:09.209Z,100340.69
2022-09-18T23:26:41.377Z,100339.16
2022-09-18T23:29:10.380Z,100347.78
2022-09-18T23:31:39.572Z,100344.19
2022-09-18T23:34:10.356Z,100350.59
2022-09-18T23:36:39.434Z,100357.53
2022-09-18T23:39:11.845Z,100361.63
2022-09-18T23:41:38.321Z,100358.13
2022-09-18T23:44:07.332Z,100363.72
2022-09-18T23:46:34.188Z,100362.19
2022-09-18T23:49:00.775Z,100365.53
2022-09-18T23:51:29.544Z,100371.69
2022-09-18T23:53:57.291Z,100369.19
2022-09-18T23:56:24.726Z,100369.38
2022-09-18T23:58:56.506Z,100375.56
